Capitol Logistics 3270


KMIA
Miami International Airport
Miami, Florida, US
KSAV
Savannah/Hilton Head International Airport
Savannah, Georgia, US

Activity Log

Date Flight Route Aircraft Duration
12/31/2019 CPX3270 HEDLY J53 CRG B752 1h 31m
12/23/2019 CPX3270 PIONN V437 MLB V3 OMN V437 KELER SF34 2h 04m
11/26/2019 CPX3270 PIONN V437 MLB V3 OMN V437 KELER SF34 2h 27m
10/10/2019 CPX670 PIONN V437 MLB V3 OMN V437 KELER SF34 1h 36m
09/24/2019 CPX670 PIONN V437 MLB V3 OMN V437 KELER SF34 1h 40m
05/01/2019 CPX670 DHP V437 MLB V3 OMN V437 KELER SF34 1h 43m
03/22/2019 CPX670 PIONN V437 MLB V3 OMN V437 KELER SF34 1h 55m

Route Details

Aircraft Information
Primary: Saab 340AF
Backup: Boeing 757-200SF
Route Data
Distance: 382nm
Sched. Duration: 2h 20m
Avg. Duration: 1h 62m (-57m)
Times Flown: 7
Recm'd Route: PIONN V437 MLB V3 OMN V437 KELER
Planned Altitude: 16,000ft
Origin Wx: KMIA 281053Z 33008G16KT 10SM FEW050 11/03 A3021 RMK AO2 SLP231 T01110033
Dest. Wx: KSAV 281053Z 28004KT 10SM CLR 01/M02 A3021 RMK AO2 SLP229 T00111017
Notes:

Financial History
Total Freight: 91,838lbs
Average Load: 13,120lbs/flt
Fuel Used: 19,190lbs
Avg. Fuel Used: 2,741lbs/flt
Fuel Expense: $23,604
Avg. Fuel Expense: $3,372
Avg. Fuel Cost: $1.23/lbs
Total Gross Income: $109,847
Pilot Pay: $1,353
Total Expenses: $12,227
Total Revenue: $71,331
Average Revenue: $15,692.46